Time;durP1;ratioP1;P1;durP2;ratioP2;P2;SDS_P1;SDS_P2;PMS_P1;PMS_P2;Temp;Humidity;BMP_temperature;BMP_pressure;BME280_temperature;BME280_humidity;BME280_pressure;Samples;Min_cycle;Max_cycle;Signal;HPM_P1;HPM_P2
2022/01/16 00:00:19;;;;;;;1.60;1.15;;;;;;;9.91;49.80;99808.00;1767522;79;21029;-66
2022/01/16 00:05:24;;;;;;;1.90;1.10;;;;;;;9.91;49.76;99802.69;1773692;78;21068;-68
2022/01/16 00:07:50;;;;;;;1.20;0.93;;;;;;;9.90;49.75;99811.63;1773986;79;21119;-67
2022/01/16 00:10:18;;;;;;;1.60;1.20;;;;;;;9.89;49.76;99811.31;1776868;79;21075;-68
2022/01/16 00:12:52;;;;;;;1.52;1.20;;;;;;;9.91;49.76;99816.43;1779103;78;21025;-67
2022/01/16 00:15:15;;;;;;;1.25;1.15;;;;;;;9.90;49.75;99820.09;1788112;79;21155;-68
2022/01/16 00:17:53;;;;;;;1.10;1.00;;;;;;;9.89;49.76;99808.66;1771431;78;21024;-68
2022/01/16 00:20:11;;;;;;;0.95;0.95;;;;;;;9.88;49.73;99812.29;1778276;78;21053;-67
2022/01/16 00:22:39;;;;;;;1.20;0.90;;;;;;;9.89;49.73;99819.27;1788474;78;21142;-67
2022/01/16 00:25:07;;;;;;;1.30;1.10;;;;;;;9.90;49.73;99826.22;1791691;78;21083;-67
2022/01/16 00:27:34;;;;;;;0.82;0.78;;;;;;;9.89;49.71;99832.54;1781381;79;21143;-67
2022/01/16 00:30:00;;;;;;;1.07;0.98;;;;;;;9.89;49.71;99829.89;1789884;79;21045;-69
2022/01/16 00:32:27;;;;;;;1.40;1.10;;;;;;;9.88;49.73;99832.19;1787387;79;21037;-67
2022/01/16 00:34:53;;;;;;;1.70;1.10;;;;;;;9.87;49.70;99821.26;1776734;79;21056;-69
2022/01/16 00:37:19;;;;;;;0.95;0.90;;;;;;;9.87;49.67;99810.64;1775259;78;21060;-68
2022/01/16 00:39:46;;;;;;;1.50;1.20;;;;;;;9.88;49.68;99800.34;1782679;78;21196;-67
2022/01/16 00:42:12;;;;;;;1.70;1.25;;;;;;;9.88;49.68;99801.67;1783573;78;21015;-67
2022/01/16 00:44:38;;;;;;;1.22;1.07;;;;;;;9.88;49.66;99805.66;1778831;78;21119;-71
2022/01/16 00:47:05;;;;;;;1.45;0.95;;;;;;;9.88;49.64;99834.02;1780191;79;21020;-67
2022/01/16 00:49:34;;;;;;;1.32;1.07;;;;;;;9.87;49.64;99826.56;1793031;78;21482;-68
2022/01/16 00:52:00;;;;;;;1.72;1.15;;;;;;;9.88;49.63;99826.06;1781619;78;22086;-68
2022/01/16 00:54:26;;;;;;;1.30;1.20;;;;;;;9.87;49.63;99829.22;1782675;78;21101;-67
2022/01/16 00:56:53;;;;;;;1.27;1.05;;;;;;;9.88;49.62;99831.37;1801763;78;21502;-67
2022/01/16 00:59:19;;;;;;;1.30;1.10;;;;;;;9.87;49.61;99827.89;1789121;78;21013;-68
2022/01/16 01:01:46;;;;;;;1.47;1.10;;;;;;;9.88;49.61;99804.33;1769351;78;21674;-67
2022/01/16 01:04:12;;;;;;;1.70;1.20;;;;;;;9.87;49.58;99786.77;1754436;81;21131;-68
2022/01/16 01:06:38;;;;;;;0.78;0.78;;;;;;;9.79;49.59;99790.70;1758401;81;21072;-68
2022/01/16 01:09:05;;;;;;;2.25;1.45;;;;;;;9.85;49.58;99816.61;1756861;81;22076;-67
2022/01/16 01:11:31;;;;;;;0.90;0.90;;;;;;;9.85;49.59;99829.88;1756208;80;21049;-68
2022/01/16 01:16:49;;;;;;;1.52;1.32;;;;;;;9.86;49.57;99841.31;1745606;80;21908;-67
2022/01/16 01:18:56;;;;;;;1.35;0.90;;;;;;;9.86;49.57;99847.45;1752492;80;21532;-68
2022/01/16 01:21:29;;;;;;;1.45;1.00;;;;;;;9.86;49.56;99821.41;1751580;80;21088;-67
2022/01/16 01:23:57;;;;;;;1.37;1.27;;;;;;;9.85;49.55;99816.61;1758576;80;21057;-66
2022/01/16 01:26:29;;;;;;;1.25;1.00;;;;;;;9.84;49.55;99851.58;1761078;81;21025;-69
2022/01/16 01:28:52;;;;;;;1.20;1.10;;;;;;;9.84;49.55;99855.56;1751616;81;21174;-68
2022/01/16 01:31:18;;;;;;;2.20;1.20;;;;;;;9.84;49.55;99860.87;1749923;80;21054;-67
2022/01/16 01:33:45;;;;;;;1.82;1.07;;;;;;;9.84;49.55;99875.97;1748751;81;21059;-68
2022/01/16 01:36:11;;;;;;;1.40;1.02;;;;;;;9.83;49.53;99855.72;1749819;81;21505;-67
2022/01/16 01:38:37;;;;;;;1.30;1.02;;;;;;;9.83;49.51;99876.47;1766389;80;21068;-67
2022/01/16 01:41:04;;;;;;;1.12;1.02;;;;;;;9.83;49.52;99903.47;1762146;80;21816;-67
2022/01/16 01:51:38;;;;;;;1.50;1.10;;;;;;;9.82;49.48;99749.27;1754639;79;21128;-68
2022/01/16 01:54:06;;;;;;;1.25;1.00;;;;;;;9.81;49.49;99705.98;1762819;79;21737;-69
2022/01/16 01:56:33;;;;;;;1.25;0.90;;;;;;;9.81;49.50;99738.30;1761200;80;21528;-68
2022/01/16 01:59:00;;;;;;;1.47;1.10;;;;;;;9.80;49.47;99749.42;1754025;81;21021;-68
2022/01/16 02:01:27;;;;;;;1.15;1.05;;;;;;;9.80;49.50;99775.13;1762780;79;21596;-70
2022/01/16 02:03:54;;;;;;;1.80;1.10;;;;;;;9.80;49.50;99805.14;1777708;78;21055;-68
2022/01/16 02:06:25;;;;;;;2.40;1.45;;;;;;;9.79;49.50;99811.45;1790349;79;21587;-68
2022/01/16 02:08:54;;;;;;;1.02;0.80;;;;;;;9.79;49.50;99807.47;1766165;79;21064;-68
2022/01/16 02:11:27;;;;;;;1.05;0.95;;;;;;;9.80;49.48;99819.73;1778981;78;21096;-67
2022/01/16 02:14:03;;;;;;;1.42;1.15;;;;;;;9.80;49.46;99840.13;1820071;78;20967;-69
2022/01/16 02:28:23;;;;;;;1.15;0.95;;;;;;;9.77;49.48;99833.80;1791020;78;21073;-68
2022/01/16 02:36:26;;;;;;;1.75;1.20;;;;;;;9.73;49.52;99843.91;1775859;78;20990;-68
2022/01/16 02:38:45;;;;;;;1.05;0.80;;;;;;;9.72;49.51;99850.22;1787860;80;21491;-67
2022/01/16 02:41:12;;;;;;;1.25;0.88;;;;;;;9.72;49.51;99858.68;1797595;78;20993;-67
2022/01/16 02:43:44;;;;;;;1.32;0.90;;;;;;;9.72;49.53;99869.30;1775918;79;21371;-67
2022/01/16 02:48:48;;;;;;;1.30;1.02;;;;;;;9.72;49.53;99876.75;1788957;78;21021;-67
2022/01/16 02:51:17;;;;;;;1.10;1.00;;;;;;;9.72;49.52;99888.69;1800608;77;21083;-68
2022/01/16 02:53:45;;;;;;;1.10;0.95;;;;;;;9.71;49.51;99868.44;1803032;77;21041;-67
2022/01/16 02:56:12;;;;;;;1.62;1.05;;;;;;;9.72;49.49;99863.98;1794552;79;21497;-67
2022/01/16 02:58:40;;;;;;;2.52;1.10;;;;;;;9.72;49.48;99866.64;1793039;77;21568;-67
2022/01/16 03:01:06;;;;;;;2.05;1.45;;;;;;;9.72;49.49;99869.30;1770514;80;21052;-67
2022/01/16 03:03:33;;;;;;;1.00;0.90;;;;;;;9.72;49.49;99870.11;1769224;79;21079;-67
2022/01/16 03:05:59;;;;;;;1.82;1.30;;;;;;;9.72;49.49;99878.08;1775824;78;21044;-67
2022/01/16 03:08:26;;;;;;;1.55;1.35;;;;;;;9.73;49.45;99880.22;1780041;78;21009;-68
2022/01/16 03:11:15;;;;;;;1.47;1.20;;;;;;;9.73;49.43;99886.86;1791473;78;21817;-68
2022/01/16 03:13:32;;;;;;;1.05;0.90;;;;;;;9.73;49.44;99889.00;1801260;78;21054;-68
2022/01/16 03:15:58;;;;;;;1.17;1.00;;;;;;;9.72;49.44;99895.31;1787835;78;21041;-67
2022/01/16 03:23:36;;;;;;;1.62;0.90;;;;;;;9.73;49.38;99901.45;1812815;78;21104;-66
2022/01/16 03:26:02;;;;;;;1.85;1.07;;;;;;;9.73;49.41;99903.59;1788824;78;21536;-67
2022/01/16 03:28:29;;;;;;;1.02;0.90;;;;;;;9.71;49.39;99894.14;1783444;78;21033;-67
2022/01/16 03:30:56;;;;;;;1.20;1.10;;;;;;;9.72;49.38;99897.14;1796218;78;21057;-67
2022/01/16 03:33:22;;;;;;;1.37;1.02;;;;;;;9.72;49.38;99899.30;1784476;78;21048;-68
2022/01/16 03:35:49;;;;;;;1.80;1.40;;;;;;;9.72;49.35;99897.14;1789676;78;21129;-67
2022/01/16 03:38:15;;;;;;;1.30;1.12;;;;;;;9.72;49.35;99902.45;1789155;78;21045;-68
2022/01/16 03:40:43;;;;;;;1.67;1.15;;;;;;;9.72;49.36;99909.91;1782944;78;21092;-68
2022/01/16 03:43:13;;;;;;;1.10;1.00;;;;;;;9.72;49.34;99916.55;1800273;78;21024;-67
2022/01/16 03:45:44;;;;;;;2.47;1.25;;;;;;;9.73;49.35;99913.39;1776779;78;21697;-67
2022/01/16 03:48:10;;;;;;;1.40;1.10;;;;;;;9.72;49.31;99912.56;1788766;78;21489;-67
2022/01/16 03:50:37;;;;;;;1.20;1.02;;;;;;;9.72;49.31;99909.09;1793911;78;21020;-67
2022/01/16 03:53:04;;;;;;;2.05;1.27;;;;;;;9.72;49.34;99913.06;1790841;78;21488;-68
2022/01/16 03:55:32;;;;;;;1.25;0.90;;;;;;;9.73;49.33;99906.75;1790716;78;21077;-68
2022/01/16 03:57:58;;;;;;;1.30;1.20;;;;;;;9.72;49.33;99918.38;1788282;78;21052;-70
2022/01/16 04:00:25;;;;;;;2.10;1.40;;;;;;;9.72;49.33;99918.38;1798539;79;21066;-68
2022/01/16 04:02:52;;;;;;;1.47;0.95;;;;;;;9.72;49.31;99915.72;1784178;78;21536;-67
2022/01/16 04:05:18;;;;;;;1.55;0.93;;;;;;;9.72;49.30;99907.76;1781535;78;21057;-68
2022/01/16 04:07:45;;;;;;;1.32;0.95;;;;;;;9.71;49.30;99913.54;1787448;78;21072;-69
2022/01/16 04:10:12;;;;;;;1.55;1.07;;;;;;;9.73;49.26;99909.41;1793288;78;20985;-67
2022/01/16 04:12:39;;;;;;;1.42;1.10;;;;;;;9.72;49.27;99906.44;1778244;79;21148;-67
2022/01/16 04:17:40;;;;;;;1.32;1.20;;;;;;;9.72;49.27;99907.76;1779281;78;21041;-67
2022/01/16 04:20:10;;;;;;;0.85;0.85;;;;;;;9.71;49.28;99908.23;1797809;78;21012;-67
2022/01/16 04:22:39;;;;;;;0.98;0.88;;;;;;;9.71;49.27;99904.25;1790938;78;21026;-67
2022/01/16 04:25:06;;;;;;;1.27;1.05;;;;;;;9.71;49.24;99912.21;1789116;78;22546;-67
2022/01/16 04:27:33;;;;;;;1.25;1.10;;;;;;;9.71;49.27;99912.21;1764397;79;21041;-66
2022/01/16 04:30:00;;;;;;;2.52;1.30;;;;;;;9.71;49.25;99918.02;1775672;78;21017;-67
2022/01/16 04:32:26;;;;;;;1.42;1.30;;;;;;;9.71;49.25;99916.19;1774614;79;21033;-67
2022/01/16 04:34:53;;;;;;;1.20;1.05;;;;;;;9.70;49.24;99915.05;1783525;79;21036;-67
2022/01/16 04:37:19;;;;;;;1.30;1.10;;;;;;;9.70;49.25;99918.52;1800529;79;21066;-67
2022/01/16 04:39:59;;;;;;;1.30;1.20;;;;;;;9.70;49.25;99914.55;1782593;78;21481;-66
2022/01/16 04:45:02;;;;;;;1.75;1.10;;;;;;;9.70;49.23;99923.83;1801942;77;21011;-66
2022/01/16 04:47:30;;;;;;;1.82;1.17;;;;;;;9.70;49.24;99926.98;1781224;80;21025;-69
2022/01/16 04:49:57;;;;;;;1.87;1.30;;;;;;;9.70;49.23;99929.64;1797551;78;21788;-68
2022/01/16 04:52:23;;;;;;;2.08;1.40;;;;;;;9.69;49.24;99919.50;1781296;78;21045;-68
2022/01/16 04:54:50;;;;;;;1.50;1.12;;;;;;;9.69;49.24;99920.83;1798386;77;21010;-67
2022/01/16 04:57:16;;;;;;;2.00;1.42;;;;;;;9.69;49.22;99923.48;1814242;77;21072;-67
2022/01/16 04:59:43;;;;;;;1.30;1.12;;;;;;;9.69;49.23;99930.61;1809576;77;21021;-68
2022/01/16 05:02:09;;;;;;;2.12;1.40;;;;;;;9.68;49.23;99932.44;1803954;77;21135;-64
2022/01/16 05:04:38;;;;;;;1.47;1.17;;;;;;;9.68;49.22;99928.47;1785883;78;21458;-66
2022/01/16 05:07:05;;;;;;;1.95;1.20;;;;;;;9.68;49.22;99932.91;1801782;78;21096;-67
2022/01/16 05:09:31;;;;;;;1.42;1.30;;;;;;;9.67;49.22;99934.74;1782560;78;21060;-68
2022/01/16 05:12:01;;;;;;;1.07;0.95;;;;;;;9.66;49.21;99945.03;1771991;79;21006;-67
2022/01/16 05:18:01;;;;;;;1.40;1.22;;;;;;;9.73;49.22;99946.55;1880474;76;28646;-67
2022/01/16 05:20:28;;;;;;;2.12;1.50;;;;;;;9.69;49.17;99951.84;1836415;77;21091;-67
2022/01/16 05:22:54;;;;;;;2.05;1.37;;;;;;;9.68;49.17;99951.02;1842815;77;21977;-68
2022/01/16 05:25:21;;;;;;;1.67;1.20;;;;;;;9.69;49.16;99961.12;1847332;77;20894;-68
2022/01/16 05:27:47;;;;;;;1.15;0.90;;;;;;;9.68;49.14;99956.31;1848438;77;21521;-67
2022/01/16 05:30:14;;;;;;;1.80;1.17;;;;;;;9.68;49.15;99955.46;1846450;77;21033;-66
2022/01/16 05:32:40;;;;;;;1.72;1.30;;;;;;;9.69;49.16;99967.75;1848816;77;20933;-67
2022/01/16 05:35:08;;;;;;;2.10;1.60;;;;;;;9.68;49.16;99959.44;1857186;77;23271;-69
2022/01/16 05:37:34;;;;;;;1.20;1.10;;;;;;;9.68;49.14;99962.95;1834987;77;20945;-67
2022/01/16 05:40:01;;;;;;;2.15;1.30;;;;;;;9.67;49.11;99961.27;1844817;77;21001;-67
2022/01/16 05:42:27;;;;;;;1.52;1.10;;;;;;;9.68;49.12;99963.42;1838671;77;21081;-68
2022/01/16 05:44:53;;;;;;;1.82;1.57;;;;;;;9.68;49.12;99966.08;1851157;77;21041;-67
2022/01/16 05:47:19;;;;;;;1.27;1.00;;;;;;;9.66;49.11;99963.60;1853628;77;21004;-68
2022/01/16 05:49:46;;;;;;;2.00;1.20;;;;;;;9.65;49.11;99964.08;1788427;79;21260;-69
2022/01/16 05:52:12;;;;;;;1.98;1.20;;;;;;;9.65;49.09;99957.94;1781032;78;21021;-69
2022/01/16 05:54:39;;;;;;;2.22;1.20;;;;;;;9.64;49.08;99949.16;1785495;79;21061;-67
2022/01/16 05:57:05;;;;;;;1.57;1.20;;;;;;;9.65;49.08;99954.79;1765033;80;21069;-69
2022/01/16 05:59:32;;;;;;;2.42;1.50;;;;;;;9.65;49.08;99965.90;1785461;78;22151;-69
2022/01/16 06:01:58;;;;;;;1.60;1.27;;;;;;;9.65;49.08;99972.03;1784293;78;21060;-68
2022/01/16 06:04:24;;;;;;;2.08;1.27;;;;;;;9.64;49.06;99969.06;1799308;78;21537;-67
2022/01/16 06:06:52;;;;;;;1.30;1.15;;;;;;;9.65;49.06;99968.05;1803359;78;21061;-67
2022/01/16 06:09:18;;;;;;;1.70;1.20;;;;;;;9.65;49.04;99971.20;1809752;78;21818;-67
2022/01/16 06:11:44;;;;;;;1.32;1.10;;;;;;;9.64;49.03;99973.03;1810184;78;21183;-67
2022/01/16 06:14:10;;;;;;;1.72;1.47;;;;;;;9.64;49.05;99977.02;1769255;80;21053;-67
2022/01/16 06:16:38;;;;;;;2.30;1.50;;;;;;;9.64;49.03;99982.32;1778333;80;21517;-68
2022/01/16 06:19:06;;;;;;;1.35;1.00;;;;;;;9.64;49.02;99992.94;1780110;78;21002;-67
2022/01/16 06:21:33;;;;;;;1.75;1.20;;;;;;;9.64;49.00;99996.91;1800894;78;21088;-67
2022/01/16 06:23:59;;;;;;;2.35;1.65;;;;;;;9.65;49.01;99996.41;1796616;78;22450;-68
2022/01/16 06:26:25;;;;;;;1.45;1.00;;;;;;;9.64;48.97;100000.89;1816945;78;21021;-66
2022/01/16 06:28:52;;;;;;;1.30;1.00;;;;;;;9.63;48.99;99992.58;1821681;78;21017;-67
2022/01/16 06:31:18;;;;;;;1.90;1.20;;;;;;;9.66;48.97;100002.06;1794406;78;21518;-67
2022/01/16 06:33:44;;;;;;;2.35;1.22;;;;;;;9.65;48.96;100005.19;1787171;78;21037;-67
2022/01/16 06:36:11;;;;;;;1.90;1.17;;;;;;;9.64;48.92;99999.56;1799107;78;21056;-67
2022/01/16 06:38:38;;;;;;;1.52;1.20;;;;;;;9.64;48.95;100000.89;1776835;79;21006;-68
2022/01/16 06:41:04;;;;;;;1.47;0.98;;;;;;;9.63;48.95;100004.52;1774180;79;21525;-69
2022/01/16 06:43:33;;;;;;;2.22;1.10;;;;;;;9.65;48.95;100008.34;1782623;79;21018;-66
2022/01/16 06:45:59;;;;;;;1.87;1.40;;;;;;;9.64;48.92;100010.17;1789656;79;21044;-67
2022/01/16 06:48:26;;;;;;;1.15;1.05;;;;;;;9.65;48.90;100008.34;1794561;79;21234;-68
2022/01/16 06:50:52;;;;;;;1.45;1.25;;;;;;;9.65;48.90;100014.47;1775862;79;21013;-67
2022/01/16 06:53:19;;;;;;;2.22;1.40;;;;;;;9.64;48.90;100011.50;1790296;79;21022;-67
2022/01/16 06:55:45;;;;;;;1.47;1.02;;;;;;;9.65;48.89;100016.30;1778689;79;21063;-68
2022/01/16 06:58:11;;;;;;;1.95;1.20;;;;;;;9.64;48.90;100011.50;1791183;79;21013;-68
2022/01/16 07:00:38;;;;;;;1.52;1.30;;;;;;;9.64;48.90;100016.80;1805133;78;21046;-68
2022/01/16 07:03:04;;;;;;;2.65;1.35;;;;;;;9.65;48.89;100017.13;1793957;78;21737;-68
2022/01/16 07:05:30;;;;;;;1.70;1.20;;;;;;;9.65;48.87;100013.14;1812815;78;21069;-67
2022/01/16 07:07:57;;;;;;;1.95;1.37;;;;;;;9.65;48.87;100015.80;1780897;79;21038;-67
2022/01/16 07:10:24;;;;;;;1.25;1.00;;;;;;;9.65;48.87;100021.11;1771464;78;21564;-67
2022/01/16 07:12:50;;;;;;;1.47;1.20;;;;;;;9.67;48.87;100031.56;1784216;80;21135;-68
2022/01/16 07:15:17;;;;;;;1.67;1.10;;;;;;;9.66;48.84;100024.61;1806774;78;22215;-68
2022/01/16 07:17:44;;;;;;;2.05;1.20;;;;;;;9.67;48.85;100038.20;1777473;79;21124;-67
2022/01/16 07:20:11;;;;;;;1.55;1.37;;;;;;;9.68;48.82;100041.67;1783008;79;21033;-68
2022/01/16 07:22:38;;;;;;;1.37;1.20;;;;;;;9.67;48.83;100038.20;1793585;79;21099;-67
2022/01/16 07:25:06;;;;;;;1.65;1.27;;;;;;;9.68;48.81;100044.33;1792325;79;21577;-68
2022/01/16 07:27:32;;;;;;;2.62;1.50;;;;;;;9.68;48.79;100038.55;1797591;79;21033;-68
2022/01/16 07:29:59;;;;;;;1.60;1.35;;;;;;;9.68;48.81;100034.58;1790294;79;21009;-69
2022/01/16 07:32:25;;;;;;;1.62;1.45;;;;;;;9.70;48.78;100037.91;1782184;80;21045;-67
2022/01/16 07:34:51;;;;;;;1.77;1.37;;;;;;;9.69;48.77;100046.02;1810366;78;21037;-68
2022/01/16 07:37:18;;;;;;;2.10;1.30;;;;;;;9.70;48.74;100042.38;1791212;78;21165;-68
2022/01/16 07:39:44;;;;;;;1.45;1.17;;;;;;;9.71;48.73;100045.36;1807297;78;21370;-67
2022/01/16 07:42:10;;;;;;;2.42;1.30;;;;;;;9.72;48.71;100045.71;1792278;78;21136;-67
2022/01/16 07:44:37;;;;;;;1.95;1.17;;;;;;;9.72;48.71;100055.00;1811081;78;21550;-67
2022/01/16 07:47:06;;;;;;;1.60;1.20;;;;;;;9.72;48.70;100051.84;1819099;78;21077;-68
2022/01/16 07:49:32;;;;;;;2.02;1.50;;;;;;;9.73;48.70;100062.78;1820409;78;21119;-65
2022/01/16 07:51:59;;;;;;;2.02;1.40;;;;;;;9.73;48.88;100050.02;1780590;79;22349;-68
2022/01/16 07:54:25;;;;;;;1.27;1.17;;;;;;;9.74;49.03;100045.06;1774727;80;21561;-68
2022/01/16 07:56:51;;;;;;;1.90;1.40;;;;;;;9.74;49.00;100043.73;1764285;80;21026;-67
2022/01/16 07:59:17;;;;;;;1.75;1.30;;;;;;;9.75;48.99;100042.23;1781275;79;21229;-68
2022/01/16 08:01:44;;;;;;;1.62;1.32;;;;;;;9.75;48.97;100038.25;1779992;79;21091;-67
2022/01/16 08:04:10;;;;;;;2.67;1.30;;;;;;;9.76;48.96;100044.41;1788456;80;21033;-71
2022/01/16 08:06:37;;;;;;;1.12;1.02;;;;;;;9.76;48.94;100041.25;1818356;78;21513;-67
2022/01/16 08:09:03;;;;;;;1.85;1.50;;;;;;;9.76;48.89;100050.55;1784590;78;21033;-66
2022/01/16 08:11:30;;;;;;;3.42;1.95;;;;;;;9.76;48.87;100053.20;1781798;79;21512;-67
2022/01/16 08:13:57;;;;;;;2.00;1.12;;;;;;;9.78;48.85;100059.68;1781156;79;21098;-69
2022/01/16 08:16:25;;;;;;;1.40;1.20;;;;;;;9.78;48.85;100059.68;1772742;79;21139;-67
2022/01/16 08:18:51;;;;;;;2.02;1.40;;;;;;;9.78;48.81;100068.47;1801067;78;21036;-70
2022/01/16 08:21:17;;;;;;;1.55;1.15;;;;;;;9.80;48.83;100073.63;1787743;78;21069;-69
2022/01/16 08:23:44;;;;;;;2.27;1.35;;;;;;;9.80;48.80;100058.52;1796923;78;21686;-66
2022/01/16 08:26:10;;;;;;;1.92;1.20;;;;;;;9.80;48.78;100055.05;1787018;80;23287;-66
2022/01/16 08:28:37;;;;;;;1.92;1.42;;;;;;;9.81;48.76;100047.41;1792166;79;21029;-68
2022/01/16 08:31:03;;;;;;;2.05;1.40;;;;;;;9.82;48.74;100049.91;1790033;80;21072;-68
2022/01/16 08:33:29;;;;;;;1.90;1.70;;;;;;;9.82;48.70;100053.07;1781725;79;21466;-67
2022/01/16 08:35:56;;;;;;;1.35;1.22;;;;;;;9.83;48.68;100055.58;1801982;79;20995;-67
2022/01/16 08:38:22;;;;;;;1.70;1.25;;;;;;;9.83;48.66;100055.58;1779604;80;21505;-68
2022/01/16 08:40:49;;;;;;;1.52;1.32;;;;;;;9.84;48.63;100064.36;1807130;79;21072;-68
2022/01/16 08:43:16;;;;;;;1.65;1.37;;;;;;;9.85;48.63;100067.37;1790616;79;20992;-69
2022/01/16 08:45:43;;;;;;;2.02;1.47;;;;;;;9.86;48.60;100066.36;1803163;79;21009;-69
2022/01/16 08:48:09;;;;;;;1.75;1.10;;;;;;;9.86;48.59;100061.05;1797713;79;20993;-68
2022/01/16 08:50:36;;;;;;;1.98;1.40;;;;;;;9.87;48.56;100064.06;1793478;79;21049;-68
2022/01/16 08:53:03;;;;;;;2.17;1.50;;;;;;;9.87;48.54;100058.75;1793431;79;21034;-67
2022/01/16 08:55:31;;;;;;;1.92;1.40;;;;;;;9.88;48.52;100052.44;1796546;79;21001;-67
2022/01/16 08:57:59;;;;;;;1.72;1.52;;;;;;;9.89;48.49;100054.59;1788928;80;20989;-67
2022/01/16 09:00:26;;;;;;;1.30;1.20;;;;;;;9.88;48.50;100051.11;1770013;80;21485;-68
2022/01/16 09:02:52;;;;;;;1.87;1.30;;;;;;;9.89;48.45;100043.51;1773425;80;21059;-68
2022/01/16 09:05:18;;;;;;;1.75;1.37;;;;;;;9.90;48.46;100033.72;1773530;80;21674;-68
2022/01/16 09:07:45;;;;;;;2.00;1.32;;;;;;;9.89;48.43;100027.58;1771361;80;21016;-67
2022/01/16 09:10:13;;;;;;;2.15;1.57;;;;;;;9.91;48.43;100030.91;1767831;80;21036;-70
2022/01/16 09:12:39;;;;;;;1.92;1.42;;;;;;;9.91;48.41;100032.23;1773552;80;21025;-67
2022/01/16 09:15:08;;;;;;;3.25;1.75;;;;;;;9.91;48.41;100028.73;1770647;80;21146;-67
2022/01/16 09:17:34;;;;;;;2.62;1.30;;;;;;;9.93;48.38;100026.75;1762881;80;21032;-67
2022/01/16 09:20:01;;;;;;;1.67;1.35;;;;;;;9.93;48.35;100028.93;1777716;79;21551;-68
2022/01/16 09:22:27;;;;;;;1.82;1.20;;;;;;;9.94;48.36;100021.29;1778610;79;20998;-67
2022/01/16 09:24:54;;;;;;;1.82;1.40;;;;;;;9.96;48.35;100017.16;1770941;79;21022;-68
2022/01/16 09:27:20;;;;;;;1.50;1.40;;;;;;;9.96;48.31;100019.31;1771539;79;21101;-70
2022/01/16 09:29:47;;;;;;;2.45;1.50;;;;;;;9.98;48.30;100024.47;1769738;81;21128;-69
2022/01/16 09:32:13;;;;;;;1.55;1.37;;;;;;;9.99;48.27;100016.86;1756580;80;21080;-70
2022/01/16 09:34:42;;;;;;;1.87;1.40;;;;;;;10.01;48.27;100016.20;1753094;80;21010;-69
2022/01/16 09:37:09;;;;;;;1.72;1.30;;;;;;;10.02;48.23;100005.44;1783104;79;21049;-69
2022/01/16 09:39:37;;;;;;;2.10;1.70;;;;;;;10.02;48.23;99994.82;1800116;79;21152;-67
2022/01/16 09:42:06;;;;;;;2.10;1.30;;;;;;;10.04;48.18;99997.29;1775696;79;21516;-69
2022/01/16 09:44:40;;;;;;;1.72;1.50;;;;;;;10.05;48.16;99991.00;1771744;79;21009;-67
2022/01/16 09:47:09;;;;;;;1.57;1.40;;;;;;;10.07;48.13;99990.85;1787789;79;21517;-68
2022/01/16 09:49:35;;;;;;;1.25;1.15;;;;;;;10.07;48.10;99989.52;1785021;79;21074;-67
2022/01/16 09:52:03;;;;;;;2.60;1.92;;;;;;;10.08;48.09;99985.86;1792312;79;21074;-67
2022/01/16 09:54:29;;;;;;;1.62;1.50;;;;;;;10.09;48.07;99983.05;1801749;79;21009;-68
2022/01/16 09:56:56;;;;;;;1.60;1.40;;;;;;;10.09;48.05;99988.36;1801566;79;21057;-68
2022/01/16 09:59:22;;;;;;;2.60;1.62;;;;;;;10.10;48.04;99987.39;1801965;79;21528;-67
2022/01/16 10:01:49;;;;;;;2.15;1.35;;;;;;;10.12;48.00;99989.86;1792149;79;21084;-68
2022/01/16 10:04:43;;;;;;;1.85;1.40;;;;;;;10.12;47.98;99985.87;1770286;81;21134;-68
2022/01/16 10:07:12;;;;;;;;;;;;;;;10.13;47.96;99983.58;1803067;79;21517;-68
2022/01/16 10:09:40;;;;;;;2.50;1.35;;;;;;;10.13;47.94;99983.58;1797792;79;20178;-68
2022/01/16 10:12:16;;;;;;;1.77;1.22;;;;;;;10.11;47.95;99979.75;1787546;79;21025;-68
2022/01/16 10:14:49;;;;;;;1.85;1.32;;;;;;;10.12;47.94;99987.20;1792312;79;21084;-68
2022/01/16 10:17:24;;;;;;;1.72;1.20;;;;;;;10.12;47.95;99988.06;1793209;79;21182;-68
2022/01/16 10:20:04;;;;;;;1.35;1.07;;;;;;;10.12;47.94;99990.72;1783773;79;21025;-68
2022/01/16 10:22:53;;;;;;;2.83;1.55;;;;;;;10.12;47.91;99985.41;1766965;80;21070;-68
2022/01/16 10:25:44;;;;;;;2.12;1.50;;;;;;;10.12;47.90;99984.08;1777451;79;21073;-67
2022/01/16 10:28:26;;;;;;;2.12;1.30;;;;;;;10.13;47.89;99984.40;1781216;79;21099;-67
2022/01/16 10:30:55;;;;;;;3.20;1.60;;;;;;;10.13;47.89;99980.92;1795379;79;21161;-67
2022/01/16 10:33:25;;;;;;;3.17;1.50;;;;;;;10.13;47.88;99990.21;1793929;80;21096;-68
2022/01/16 10:35:55;;;;;;;1.37;1.22;;;;;;;10.13;47.86;99984.40;1787883;80;21053;-68
2022/01/16 10:38:24;;;;;;;1.67;1.27;;;;;;;10.14;47.86;99974.60;1762364;81;21033;-67
2022/01/16 10:40:52;;;;;;;2.33;1.70;;;;;;;10.14;47.83;99974.60;1764628;79;21617;-67
2022/01/16 10:43:42;;;;;;;2.52;1.65;;;;;;;10.16;47.84;99973.94;1777015;80;21146;-68
2022/01/16 10:46:10;;;;;;;2.22;1.50;;;;;;;10.16;47.80;99977.92;1774676;80;21040;-67
2022/01/16 10:48:37;;;;;;;2.08;1.55;;;;;;;10.16;47.79;99976.13;1768315;79;21066;-68
2022/01/16 10:51:04;;;;;;;1.92;1.40;;;;;;;10.16;47.79;99977.45;1775720;80;21076;-68
2022/01/16 10:53:32;;;;;;;1.30;1.20;;;;;;;10.17;47.74;99979.09;1788902;80;21560;-68
2022/01/16 10:56:04;;;;;;;1.75;1.40;;;;;;;10.18;47.77;99970.66;1786610;80;21139;-68
2022/01/16 10:58:43;;;;;;;2.10;1.50;;;;;;;10.18;47.73;99966.69;1763072;80;21025;-68
2022/01/16 11:01:13;;;;;;;1.57;1.27;;;;;;;10.18;47.71;99967.50;1772800;79;21005;-68
2022/01/16 11:03:49;;;;;;;2.37;1.40;;;;;;;10.19;47.70;99963.02;1762704;80;21002;-68
2022/01/16 11:06:18;;;;;;;2.15;1.52;;;;;;;10.19;47.72;99967.83;1789473;80;21127;-68
2022/01/16 11:08:56;;;;;;;1.45;1.02;;;;;;;10.19;47.71;99972.31;1786471;80;21150;-69
2022/01/16 11:11:24;;;;;;;1.32;1.20;;;;;;;10.19;47.67;99968.33;1775418;80;21077;-68
2022/01/16 11:13:51;;;;;;;2.37;1.47;;;;;;;10.19;47.67;99970.98;1762372;80;21523;-67
2022/01/16 11:16:19;;;;;;;2.30;1.80;;;;;;;10.19;47.65;99966.50;1788850;80;21037;-67
2022/01/16 11:18:49;;;;;;;1.77;1.40;;;;;;;10.19;47.64;99967.00;1789930;79;21062;-67
2022/01/16 11:21:18;;;;;;;2.02;1.40;;;;;;;10.20;47.63;99966.02;1771706;79;21145;-68
2022/01/16 11:24:12;;;;;;;2.37;1.32;;;;;;;10.20;47.61;99966.02;1764841;81;21044;-67
2022/01/16 11:26:20;;;;;;;2.50;1.50;;;;;;;10.21;47.61;99966.34;1762076;79;21014;-69
2022/01/16 11:28:47;;;;;;;1.82;1.40;;;;;;;10.19;47.62;99971.80;1774729;79;21052;-68
2022/01/16 11:31:14;;;;;;;1.90;1.32;;;;;;;10.20;47.61;99972.66;1775176;79;21041;-68
2022/01/16 11:33:41;;;;;;;1.82;1.62;;;;;;;10.21;47.60;99964.51;1778489;79;21197;-69
2022/01/16 11:36:14;;;;;;;1.62;1.45;;;;;;;10.21;47.58;99962.36;1780159;79;21500;-69
2022/01/16 11:38:53;;;;;;;2.37;1.50;;;;;;;10.21;47.58;99960.53;1765509;81;20999;-68
2022/01/16 11:41:30;;;;;;;2.90;1.40;;;;;;;10.21;47.56;99963.69;1817943;78;20998;-68
2022/01/16 11:43:54;;;;;;;2.12;1.40;;;;;;;10.21;47.55;99958.38;1765963;80;21081;-69
2022/01/16 11:46:26;;;;;;;1.42;1.00;;;;;;;10.21;47.55;99961.86;1795256;78;21250;-69
2022/01/16 11:49:04;;;;;;;1.70;1.37;;;;;;;10.21;47.55;99957.05;1764435;79;21037;-68
2022/01/16 11:51:40;;;;;;;1.82;1.40;;;;;;;10.22;47.54;99951.59;1799580;78;20982;-69
2022/01/16 11:54:23;;;;;;;2.45;1.57;;;;;;;10.21;47.53;99952.56;1792413;80;21075;-68
2022/01/16 11:56:55;;;;;;;2.05;1.37;;;;;;;10.22;47.53;99962.71;1792438;80;21041;-69
2022/01/16 11:59:28;;;;;;;1.72;1.30;;;;;;;10.21;47.52;99949.09;1791522;80;21167;-68
2022/01/16 12:02:04;;;;;;;2.65;1.37;;;;;;;10.21;47.52;99954.39;1781196;80;21017;-68
2022/01/16 12:04:38;;;;;;;2.00;1.30;;;;;;;10.21;47.52;99953.89;1823375;78;21005;-68
2022/01/16 12:07:22;;;;;;;2.47;1.57;;;;;;;10.22;47.50;99950.26;1806250;78;21013;-69
2022/01/16 12:09:53;;;;;;;1.70;1.30;;;;;;;10.23;47.50;99951.08;1774442;78;21097;-69
2022/01/16 12:12:29;;;;;;;2.72;1.55;;;;;;;10.23;47.52;99943.12;1789454;78;21180;-68
2022/01/16 12:15:08;;;;;;;1.80;1.40;;;;;;;10.22;47.50;99947.61;1809707;77;21506;-68
2022/01/16 12:20:17;;;;;;;2.33;1.47;;;;;;;10.24;47.47;99949.60;1788282;79;21002;-67
2022/01/16 12:22:55;;;;;;;2.98;1.70;;;;;;;10.26;47.43;99953.42;1778368;79;21055;-66
2022/01/16 12:25:42;;;;;;;2.08;1.47;;;;;;;10.28;47.43;99949.29;1772024;79;21926;-68
2022/01/16 12:28:14;;;;;;;1.95;1.30;;;;;;;10.28;47.40;99950.11;1796067;79;21065;-65
2022/01/16 12:31:03;;;;;;;2.47;1.30;;;;;;;10.28;47.37;99950.11;1787135;79;21097;-69